KCCY/CCY METAR and TAF weather

Enter ICAO airport designator
Station Type Date Time Source
KCCY METAR 2019/12/14 11:15 UTC NOAA

KCCY 141115Z AUTO 32013G19KT 6SM BR OVC011 M06/M08 A2983 RMK AO2


Station Type Date Time Source
KCCY Decoded METAR 2019/12/14 11:15 UTC NOAA

Charles City, IA, United States (KCCY) 43-04N 092-37W
Dec 14, 2019 - 06:15 AM EST / 2019.12.14 1115 UTC
Wind: from the NW (320 degrees) at 15 MPH (13 KT) gusting to 22 MPH (19 KT):0
Visibility: 6 mile(s):0
Sky conditions: overcast
Weather: mist
Temperature: 21 F (-6 C)
Windchill: 6 F (-14 C):1
Dew Point: 17 F (-8 C)
Relative Humidity: 85%
Pressure (altimeter): 29.83 in. Hg (1010 hPa)
ob: KCCY 141115Z AUTO 32013G19KT 6SM BR OVC011 M06/M08 A2983 RMK AO2
cycle: 11

Station Type Date Time Source
KCCY TAF UTC NOAA

Error!

Example: see airport list